Decoded Metar for KMHT (MANCHESTER in NH, USA) (IATA:MHT) | Meteo·Mobile Aviation Weather
aviador You're here:

KMHT Decoded Metar

MANCHESTER in NH, USA
Report Time2018-11-17 21:53:00
UTC Time2018-11-17 22:14:49
Flight Rules vfr VFR
Wind240° at 04 kt
W.Decomp.*RWY 24: 3.8 kt HW 1.1 kt RCW
RWY 17: 0.3 kt HW 4.0 kt RCW
W.Rank240° ranks 19
Current wind is below 240° avg. (6.3)
Visibility9999 m
Phenomena:N/A
Clouds:Overcast 055 Hf
Expected CloudBase > 3,200 ft AGL from Temp-Dew spread
Ceiling5,500 ft
Temp06°C (ISA -8)
Dew Point-2°C (57% RH)
AAT2.3°C
QNH1018 hPa
Density Alt-850 ft
Elevation266 ft
Report Wrong Elevation
Raw Report
KMHT 172153Z 24004KT 10SM OVC055 06/M02 A3007 RMK AO2 SLP201
T00561017=

Extra information for KMHT:More info

Metar Taf Metar & Taf Last 4 Metars F.Rules Stats Wind Profile Meteogram Temp Stats Airport Information Weather charts Add Link Nearby VenuesMetar ALERT Operation Metar Decoded Social comments

AIRNAV info for KMHT